KRWI/RWI METAR and TAF weather

Enter ICAO airport designator
Station Type Date Time Source
KRWI METAR 2021/07/27 21:53 UTC NOAA

KRWI 272153Z AUTO VRB04KT 10SM CLR 33/23 A2995 RMK AO2 SLP140 T03280233 $


Station Type Date Time Source
KRWI Decoded METAR 2021/07/27 21:53 UTC NOAA

ROCKY MOUNT-WILSON AIRPORT, NC, United States (KRWI) 35-51N 077-54W 47M
Jul 27, 2021 - 05:53 PM EDT / 2021.07.27 2153 UTC
Wind: Variable at 5 MPH (4 KT):0
Visibility: 10 mile(s):0
Sky conditions: clear
Temperature: 91.0 F (32.8 C)
Heat index: 100.2 F (37.9 C):1
Dew Point: 73.9 F (23.3 C)
Relative Humidity: 57%
Pressure (altimeter): 29.95 in. Hg (1014 hPa)
ob: KRWI 272153Z AUTO VRB04KT 10SM CLR 33/23 A2995 RMK AO2 SLP140 T03280233
cycle: 22

Station Type Date Time Source
KRWI TAF 2021/07/27 18:39 UTC NOAA

TAF KRWI 271737Z 2718/2818 25005KT P6SM SCT029 BKN035
FM280800 20003KT 3SM BR BKN003
FM281200 00000KT P6SM SCT250

Example: see airport list